createdAt,value
2023-01-11T00:01:18.899Z,7.40
2023-01-11T00:04:05.538Z,7.40
2023-01-11T00:06:52.157Z,7.30
2023-01-11T00:09:38.865Z,7.50
2023-01-11T00:12:25.583Z,7.60
2023-01-11T00:15:14.075Z,7.60
2023-01-11T00:18:02.842Z,7.70
2023-01-11T00:20:49.750Z,7.60
2023-01-11T00:23:37.848Z,7.70
2023-01-11T00:26:24.268Z,7.80
2023-01-11T00:29:10.722Z,7.80
2023-01-11T00:31:58.850Z,7.90
2023-01-11T00:34:45.230Z,7.80
2023-01-11T00:37:31.484Z,7.90
2023-01-11T00:40:18.136Z,8.00
2023-01-11T00:43:22.068Z,8.00
2023-01-11T00:46:27.703Z,7.90
2023-01-11T00:49:15.633Z,7.80
2023-01-11T00:52:01.905Z,7.80
2023-01-11T00:54:48.713Z,7.90
2023-01-11T00:57:35.419Z,8.00
2023-01-11T01:00:23.195Z,7.90
2023-01-11T01:03:10.181Z,8.00
2023-01-11T01:05:58.244Z,7.90
2023-01-11T01:08:44.623Z,7.80
2023-01-11T01:11:31.622Z,7.70
2023-01-11T01:14:25.988Z,7.60
2023-01-11T01:17:12.733Z,7.60
2023-01-11T01:19:59.119Z,7.60
2023-01-11T01:22:46.661Z,7.70
2023-01-11T01:25:33.044Z,7.80
2023-01-11T01:28:22.014Z,7.90
2023-01-11T01:31:08.916Z,8.00
2023-01-11T01:33:55.750Z,8.00
2023-01-11T01:36:42.199Z,7.70
2023-01-11T01:39:30.187Z,7.70
2023-01-11T01:42:19.121Z,7.80
2023-01-11T01:45:17.920Z,7.70
2023-01-11T01:48:06.774Z,7.80
2023-01-11T01:50:56.615Z,7.70
2023-01-11T01:53:46.417Z,7.70
2023-01-11T01:56:37.882Z,7.40
2023-01-11T01:59:26.852Z,7.30
2023-01-11T02:02:13.417Z,7.50
2023-01-11T02:05:00.568Z,7.60
2023-01-11T02:07:48.180Z,7.70
2023-01-11T02:10:34.752Z,7.80
2023-01-11T02:13:23.108Z,7.80
2023-01-11T02:16:09.531Z,7.90
2023-01-11T02:18:57.679Z,7.80
2023-01-11T02:22:12.234Z,7.90
2023-01-11T02:25:16.250Z,7.80
2023-01-11T02:28:13.816Z,7.80
2023-01-11T02:31:10.497Z,7.70
2023-01-11T02:34:14.681Z,7.60
2023-01-11T02:37:11.879Z,7.50
2023-01-11T02:40:08.870Z,7.40
2023-01-11T02:43:19.392Z,7.50
2023-01-11T02:46:14.292Z,7.50
2023-01-11T02:49:09.469Z,7.30
2023-01-11T02:52:01.371Z,7.10
2023-01-11T02:54:54.532Z,7.00
2023-01-11T02:57:42.711Z,7.00
2023-01-11T03:00:29.999Z,7.00
2023-01-11T03:03:20.108Z,6.80
2023-01-11T03:06:13.681Z,6.80
2023-01-11T03:09:20.284Z,6.80
2023-01-11T03:12:54.848Z,6.90
2023-01-11T03:15:57.878Z,6.80
2023-01-11T03:18:53.361Z,6.70
2023-01-11T03:21:49.406Z,6.80
2023-01-11T03:24:44.890Z,6.80
2023-01-11T03:27:36.339Z,6.80
2023-01-11T03:30:30.529Z,6.80
2023-01-11T03:33:23.473Z,6.80
2023-01-11T03:36:19.033Z,6.70
2023-01-11T03:39:13.244Z,6.70
2023-01-11T03:42:03.757Z,6.70
2023-01-11T03:44:55.237Z,6.80
2023-01-11T03:47:42.126Z,6.90
2023-01-11T03:50:30.316Z,7.10
2023-01-11T03:53:20.618Z,7.20
2023-01-11T03:56:11.404Z,7.30
2023-01-11T03:58:57.979Z,7.50
2023-01-11T04:01:45.288Z,7.70
2023-01-11T04:04:31.654Z,7.80
2023-01-11T04:07:19.319Z,7.90
2023-01-11T04:10:08.466Z,8.10
2023-01-11T04:12:55.156Z,8.20
2023-01-11T04:15:41.485Z,8.20
2023-01-11T04:18:27.937Z,8.30
2023-01-11T04:21:14.268Z,8.20
2023-01-11T04:24:00.984Z,8.20
2023-01-11T04:26:48.773Z,8.20
2023-01-11T04:29:35.243Z,8.30
2023-01-11T04:32:21.606Z,8.30
2023-01-11T04:35:08.782Z,8.30
2023-01-11T04:37:55.759Z,8.40
2023-01-11T04:40:41.902Z,8.40
2023-01-11T04:43:28.662Z,8.50
2023-01-11T04:46:15.115Z,8.50
2023-01-11T04:49:01.663Z,8.40
2023-01-11T04:51:48.032Z,8.40
2023-01-11T04:54:34.416Z,8.40
2023-01-11T04:57:21.028Z,8.40
2023-01-11T05:00:10.906Z,8.40
2023-01-11T05:03:00.148Z,8.10
2023-01-11T05:05:55.179Z,7.90
2023-01-11T05:08:45.882Z,7.80
2023-01-11T05:11:33.475Z,7.70
2023-01-11T05:14:20.242Z,7.60
2023-01-11T05:17:07.915Z,7.60
2023-01-11T05:19:54.711Z,7.50
2023-01-11T05:22:41.548Z,7.50
2023-01-11T05:25:27.939Z,7.50
2023-01-11T05:28:14.425Z,7.60
2023-01-11T05:31:01.178Z,7.50
2023-01-11T05:33:49.180Z,7.30
2023-01-11T05:36:36.775Z,7.20
2023-01-11T05:39:24.154Z,7.20
2023-01-11T05:42:10.502Z,7.30
2023-01-11T05:45:14.185Z,7.40
2023-01-11T05:48:00.761Z,7.70
2023-01-11T05:50:53.112Z,8.10
2023-01-11T05:53:39.702Z,8.40
2023-01-11T05:56:26.793Z,8.60
2023-01-11T05:59:13.702Z,8.90
2023-01-11T06:02:00.459Z,9.10
2023-01-11T06:04:47.008Z,9.30
2023-01-11T06:07:34.780Z,9.50
2023-01-11T06:10:21.537Z,9.50
2023-01-11T06:13:25.352Z,9.60
2023-01-11T06:16:13.813Z,9.60
2023-01-11T06:19:00.177Z,9.60
2023-01-11T06:21:46.586Z,9.60
2023-01-11T06:24:34.325Z,9.70
2023-01-11T06:27:20.840Z,9.70
2023-01-11T06:30:08.402Z,9.80
2023-01-11T06:32:54.919Z,9.90
2023-01-11T06:35:43.058Z,9.90
2023-01-11T06:38:29.778Z,9.90
2023-01-11T06:41:17.429Z,9.90
2023-01-11T06:44:04.303Z,10.00
2023-01-11T06:46:50.748Z,10.00
2023-01-11T06:49:37.520Z,10.10
2023-01-11T06:52:24.372Z,10.10
2023-01-11T06:55:11.388Z,10.10
2023-01-11T06:57:59.326Z,10.10
2023-01-11T07:00:45.908Z,10.20
2023-01-11T07:03:32.950Z,10.20
2023-01-11T07:06:19.378Z,10.20
2023-01-11T07:09:05.811Z,10.30
2023-01-11T07:11:52.515Z,10.30
2023-01-11T07:14:40.758Z,10.30
2023-01-11T07:17:27.315Z,10.40
2023-01-11T07:20:14.376Z,10.40
2023-01-11T07:23:02.115Z,10.40
2023-01-11T07:25:49.400Z,10.40
2023-01-11T07:28:35.906Z,10.40
2023-01-11T07:31:23.832Z,10.40
2023-01-11T07:34:10.610Z,10.40
2023-01-11T07:36:57.017Z,10.40
2023-01-11T07:39:44.146Z,10.50
2023-01-11T07:42:48.153Z,10.50
2023-01-11T07:45:45.408Z,10.60
2023-01-11T07:48:34.471Z,10.60
2023-01-11T07:51:24.106Z,10.70
2023-01-11T07:54:10.787Z,10.70
2023-01-11T07:56:57.154Z,10.70
2023-01-11T07:59:43.866Z,10.70
2023-01-11T08:02:30.236Z,10.70
2023-01-11T08:05:18.489Z,10.70
2023-01-11T08:08:05.126Z,10.70
2023-01-11T08:11:11.880Z,10.70
2023-01-11T08:14:15.622Z,10.70
2023-01-11T08:17:02.460Z,10.80
2023-01-11T08:19:48.970Z,10.70
2023-01-11T08:22:36.956Z,10.70
2023-01-11T08:25:24.029Z,10.60
2023-01-11T08:28:12.589Z,10.50
2023-01-11T08:30:59.285Z,10.30
2023-01-11T08:33:46.083Z,10.30
2023-01-11T08:36:32.356Z,10.30
2023-01-11T08:39:20.095Z,10.40
2023-01-11T08:42:06.560Z,10.30
2023-01-11T08:44:52.898Z,10.30
2023-01-11T08:47:39.447Z,10.40
2023-01-11T08:50:25.791Z,10.30
2023-01-11T08:53:13.570Z,10.30
2023-01-11T08:56:01.768Z,10.30
2023-01-11T08:58:48.538Z,10.20
2023-01-11T09:01:34.937Z,10.20
2023-01-11T09:04:25.692Z,10.30
2023-01-11T09:07:12.354Z,10.50
2023-01-11T09:09:58.735Z,10.70
2023-01-11T09:12:46.470Z,10.80
2023-01-11T09:15:33.296Z,11.00
2023-01-11T09:18:19.606Z,11.00
2023-01-11T09:21:06.883Z,11.00
2023-01-11T09:23:53.515Z,10.90
2023-01-11T09:26:41.420Z,11.00
2023-01-11T09:29:29.654Z,11.00
2023-01-11T09:32:16.063Z,11.00
2023-01-11T09:35:03.566Z,11.00
2023-01-11T09:37:51.549Z,11.00
2023-01-11T09:40:46.106Z,11.00
2023-01-11T09:43:39.775Z,11.00
2023-01-11T09:46:29.512Z,11.10
2023-01-11T09:49:20.272Z,11.10
2023-01-11T09:52:24.246Z,11.10
2023-01-11T09:55:15.500Z,11.10
2023-01-11T09:58:28.527Z,11.10
2023-01-11T10:01:20.065Z,11.10
2023-01-11T10:04:25.944Z,11.10
2023-01-11T10:07:38.910Z,11.00
2023-01-11T10:18:23.090Z,11.10
2023-01-11T10:18:40.603Z,11.10
2023-01-11T10:20:35.314Z,11.10
2023-01-11T10:23:28.836Z,11.10
2023-01-11T10:26:27.158Z,11.10
2023-01-11T10:29:39.675Z,11.10
2023-01-11T10:32:45.643Z,11.10
2023-01-11T10:36:02.813Z,11.10
2023-01-11T10:39:11.882Z,11.10
2023-01-11T10:42:09.513Z,11.10
2023-01-11T10:45:01.727Z,11.10
2023-01-11T10:47:56.434Z,11.00
2023-01-11T10:50:51.772Z,11.10
2023-01-11T10:53:43.774Z,11.10
2023-01-11T10:57:02.321Z,11.10
2023-01-11T11:00:12.004Z,11.20
2023-01-11T11:03:32.294Z,11.00
2023-01-11T11:06:30.160Z,11.00
2023-01-11T11:09:24.544Z,11.00
2023-01-11T11:12:18.849Z,11.00
2023-01-11T11:15:12.333Z,10.90
2023-01-11T11:17:59.048Z,11.00
2023-01-11T11:20:46.380Z,11.00
2023-01-11T11:23:35.933Z,11.10
2023-01-11T11:26:23.823Z,11.10
2023-01-11T11:29:14.484Z,11.10
2023-01-11T11:32:02.098Z,11.10
2023-01-11T11:34:49.663Z,11.10
2023-01-11T11:37:40.698Z,11.00
2023-01-11T11:40:34.329Z,11.00
2023-01-11T11:43:23.798Z,10.90
2023-01-11T11:46:23.724Z,11.00
2023-01-11T11:49:13.005Z,11.00
2023-01-11T11:52:01.001Z,11.00
2023-01-11T11:54:53.636Z,11.00
2023-01-11T11:57:44.070Z,11.00
2023-01-11T12:00:33.043Z,11.00
2023-01-11T12:03:22.613Z,11.00
2023-01-11T12:06:09.112Z,10.90
2023-01-11T12:08:57.641Z,10.90
2023-01-11T12:11:48.188Z,10.90
2023-01-11T12:14:36.395Z,10.80
2023-01-11T12:17:25.433Z,10.80
2023-01-11T12:20:29.698Z,10.80
2023-01-11T12:23:18.896Z,10.80
2023-01-11T12:26:17.760Z,10.80
2023-01-11T12:29:31.380Z,10.70
2023-01-11T12:32:37.734Z,10.70
2023-01-11T12:35:34.675Z,10.70
2023-01-11T12:38:40.879Z,10.70
2023-01-11T12:41:56.345Z,10.80
2023-01-11T12:45:02.521Z,10.80
2023-01-11T12:48:22.036Z,10.80
2023-01-11T12:51:25.265Z,10.80
2023-01-11T12:54:27.989Z,10.70
2023-01-11T12:57:24.435Z,10.80
2023-01-11T13:00:21.884Z,10.70
2023-01-11T13:03:35.221Z,10.60
2023-01-11T13:06:28.489Z,10.60
2023-01-11T13:09:28.995Z,10.50
2023-01-11T13:12:22.360Z,10.40
2023-01-11T13:15:23.359Z,10.40
2023-01-11T13:18:19.458Z,10.50
2023-01-11T13:21:18.022Z,10.50
2023-01-11T13:24:09.584Z,10.40
2023-01-11T13:27:00.906Z,10.40
2023-01-11T13:29:51.015Z,10.40
2023-01-11T13:32:40.664Z,10.40
2023-01-11T13:35:38.065Z,10.40
2023-01-11T13:38:38.829Z,10.40
2023-01-11T13:41:29.279Z,10.40
2023-01-11T13:44:21.843Z,10.50
2023-01-11T13:47:14.235Z,10.50
2023-01-11T13:50:04.597Z,10.50
2023-01-11T13:53:03.334Z,10.50
2023-01-11T13:55:57.383Z,10.50
2023-01-11T13:58:53.104Z,10.50
2023-01-11T14:01:45.287Z,10.40
2023-01-11T14:04:44.349Z,10.40
2023-01-11T14:07:41.258Z,10.40
2023-01-11T14:10:40.696Z,10.40
2023-01-11T14:14:07.217Z,10.50
2023-01-11T14:17:31.338Z,10.40
2023-01-11T14:20:25.668Z,10.40
2023-01-11T14:23:14.390Z,10.50
2023-01-11T14:26:27.371Z,10.40
2023-01-11T14:29:36.836Z,10.40
2023-01-11T14:32:55.042Z,10.40
2023-01-11T14:36:05.181Z,10.40
2023-01-11T14:39:27.646Z,10.40
2023-01-11T14:42:39.167Z,10.40
2023-01-11T14:45:43.221Z,10.40
2023-01-11T14:48:36.131Z,10.40
2023-01-11T14:51:33.349Z,10.50
2023-01-11T14:54:23.630Z,10.40
2023-01-11T14:57:39.608Z,10.40
2023-01-11T15:01:11.537Z,10.30
2023-01-11T15:03:58.372Z,10.40
2023-01-11T15:06:55.457Z,10.30
2023-01-11T15:09:47.053Z,10.20
2023-01-11T15:12:35.740Z,10.20
2023-01-11T15:15:45.277Z,10.30
2023-01-11T15:18:31.681Z,10.30
2023-01-11T15:21:22.291Z,10.30
2023-01-11T15:24:23.099Z,10.30
2023-01-11T15:27:24.775Z,10.30
2023-01-11T15:30:38.933Z,10.20
2023-01-11T15:33:29.359Z,10.20
2023-01-11T15:36:16.127Z,10.20
2023-01-11T15:39:07.383Z,10.20
2023-01-11T15:42:07.127Z,10.20
2023-01-11T15:45:19.645Z,10.10
2023-01-11T15:48:25.882Z,10.10
2023-01-11T15:51:31.610Z,10.10
2023-01-11T15:55:01.159Z,10.00
2023-01-11T15:58:23.889Z,9.90
2023-01-11T16:01:23.690Z,10.00
2023-01-11T16:04:24.947Z,9.90
2023-01-11T16:07:22.302Z,9.90
2023-01-11T16:10:27.863Z,9.90
2023-01-11T16:13:30.219Z,9.80
2023-01-11T16:16:21.694Z,9.80
2023-01-11T16:19:16.595Z,9.80
2023-01-11T16:22:05.617Z,9.80
2023-01-11T16:24:56.790Z,9.80
2023-01-11T16:27:44.628Z,9.80
2023-01-11T16:30:31.741Z,9.80
2023-01-11T16:33:22.921Z,9.70
2023-01-11T16:36:13.765Z,9.80
2023-01-11T16:39:08.367Z,9.80
2023-01-11T16:41:58.853Z,9.90
2023-01-11T16:44:50.823Z,9.80
2023-01-11T16:47:37.966Z,9.80
2023-01-11T16:50:25.813Z,9.80
2023-01-11T16:53:14.750Z,9.80
2023-01-11T16:56:06.402Z,9.70
2023-01-11T16:59:06.756Z,9.70
2023-01-11T17:01:54.975Z,9.60
2023-01-11T17:04:52.012Z,9.50
2023-01-11T17:07:38.675Z,9.40
2023-01-11T17:10:27.828Z,9.40
2023-01-11T17:13:56.045Z,9.30
2023-01-11T17:16:45.548Z,9.30
2023-01-11T17:19:34.773Z,9.40
2023-01-11T17:22:24.706Z,9.30
2023-01-11T17:25:18.840Z,9.30
2023-01-11T17:28:08.632Z,9.30
2023-01-11T17:30:57.208Z,9.30
2023-01-11T17:33:43.595Z,9.20
2023-01-11T17:36:30.598Z,9.30
2023-01-11T17:39:25.973Z,9.20
2023-01-11T17:42:44.558Z,9.20
2023-01-11T17:45:31.730Z,9.20
2023-01-11T17:48:20.460Z,9.10
2023-01-11T17:51:07.335Z,9.10
2023-01-11T17:53:54.273Z,9.10
2023-01-11T17:56:42.053Z,9.10
2023-01-11T17:59:30.152Z,9.10
2023-01-11T18:02:17.544Z,9.20
2023-01-11T18:05:06.449Z,9.20
2023-01-11T18:07:54.965Z,9.20
2023-01-11T18:10:48.783Z,9.30
2023-01-11T18:13:35.694Z,9.20
2023-01-11T18:16:24.128Z,9.10
2023-01-11T18:19:31.181Z,9.20
2023-01-11T18:22:30.513Z,9.20
2023-01-11T18:25:19.828Z,9.20
2023-01-11T18:28:27.764Z,9.20
2023-01-11T18:31:14.311Z,9.10
2023-01-11T18:34:06.282Z,9.10
2023-01-11T18:36:58.833Z,9.00
2023-01-11T18:39:46.746Z,9.00
2023-01-11T18:42:33.902Z,8.90
2023-01-11T18:45:21.952Z,8.90
2023-01-11T18:48:11.900Z,8.80
2023-01-11T18:50:58.925Z,8.80
2023-01-11T18:53:45.288Z,8.80
2023-01-11T18:56:32.997Z,8.80
2023-01-11T18:59:19.429Z,8.70
2023-01-11T19:02:17.960Z,8.70
2023-01-11T19:05:05.110Z,8.70
2023-01-11T19:07:51.502Z,8.70
2023-01-11T19:10:37.977Z,8.70
2023-01-11T19:13:25.757Z,8.70
2023-01-11T19:16:12.294Z,8.70
2023-01-11T19:18:59.103Z,8.70
2023-01-11T19:21:45.465Z,8.70
2023-01-11T19:24:32.546Z,8.70
2023-01-11T19:27:19.302Z,8.70
2023-01-11T19:30:08.539Z,8.80
2023-01-11T19:32:55.489Z,8.80
2023-01-11T19:35:43.240Z,8.70
2023-01-11T19:38:30.088Z,8.70
2023-01-11T19:41:16.843Z,8.70
2023-01-11T19:44:03.611Z,8.70
2023-01-11T19:47:00.353Z,8.70
2023-01-11T19:49:56.236Z,8.70
2023-01-11T19:52:42.569Z,8.70
2023-01-11T19:55:29.352Z,8.70
2023-01-11T19:58:16.056Z,8.70
2023-01-11T20:01:08.798Z,8.70
2023-01-11T20:03:56.812Z,8.70
2023-01-11T20:06:50.097Z,8.70
2023-01-11T20:09:37.906Z,8.60
2023-01-11T20:12:24.534Z,8.70
2023-01-11T20:15:12.444Z,8.70
2023-01-11T20:17:59.249Z,8.60
2023-01-11T20:20:55.776Z,8.60
2023-01-11T20:23:42.827Z,8.60
2023-01-11T20:26:30.647Z,8.60
2023-01-11T20:29:16.894Z,8.60
2023-01-11T20:32:27.693Z,8.50
2023-01-11T20:35:11.118Z,8.50
2023-01-11T20:37:59.739Z,8.60
2023-01-11T20:40:46.367Z,8.50
2023-01-11T20:43:33.052Z,8.50
2023-01-11T20:46:19.401Z,8.50
2023-01-11T20:49:07.521Z,8.50
2023-01-11T20:51:54.711Z,8.50
2023-01-11T20:54:42.574Z,8.60
2023-01-11T20:57:29.555Z,8.60
2023-01-11T21:00:17.090Z,8.60
2023-01-11T21:03:03.638Z,8.60
2023-01-11T21:05:50.458Z,8.60
2023-01-11T21:08:37.220Z,8.50
2023-01-11T21:11:25.978Z,8.50
2023-01-11T21:14:12.943Z,8.50
2023-01-11T21:16:59.664Z,8.50
2023-01-11T21:19:46.646Z,8.50
2023-01-11T21:22:33.202Z,8.50
2023-01-11T21:25:19.990Z,8.50
2023-01-11T21:28:07.888Z,8.50
2023-01-11T21:31:04.204Z,8.50
2023-01-11T21:33:51.585Z,8.40
2023-01-11T21:36:38.591Z,8.40
2023-01-11T21:39:24.760Z,8.40
2023-01-11T21:42:11.105Z,8.40
2023-01-11T21:44:59.028Z,8.40
2023-01-11T21:47:45.391Z,8.40
2023-01-11T21:50:31.927Z,8.40
2023-01-11T21:53:18.375Z,8.40
2023-01-11T21:56:05.756Z,8.40
2023-01-11T21:58:52.708Z,8.40
2023-01-11T22:01:41.787Z,8.30
2023-01-11T22:04:28.224Z,8.30
2023-01-11T22:07:14.556Z,8.30
2023-01-11T22:10:05.553Z,8.40
2023-01-11T22:12:52.718Z,8.40
2023-01-11T22:15:39.011Z,8.40
2023-01-11T22:18:26.744Z,8.40
2023-01-11T22:21:15.499Z,8.50
2023-01-11T22:24:02.092Z,8.40
2023-01-11T22:26:49.069Z,8.40
2023-01-11T22:29:37.268Z,8.40
2023-01-11T22:32:23.934Z,8.30
2023-01-11T22:35:12.164Z,8.30
2023-01-11T22:37:58.466Z,8.30
2023-01-11T22:40:44.926Z,8.30
2023-01-11T22:43:31.377Z,8.30
2023-01-11T22:46:20.599Z,8.30
2023-01-11T22:49:07.433Z,8.30
2023-01-11T22:51:56.164Z,8.30
2023-01-11T22:54:42.722Z,8.30
2023-01-11T22:57:29.086Z,8.30
2023-01-11T23:00:15.850Z,8.20
2023-01-11T23:03:02.245Z,8.20
2023-01-11T23:05:49.125Z,8.20
2023-01-11T23:08:40.686Z,8.30
2023-01-11T23:11:47.648Z,8.30
2023-01-11T23:14:34.780Z,8.30
2023-01-11T23:17:21.160Z,8.30
2023-01-11T23:20:08.128Z,8.30
2023-01-11T23:22:54.641Z,8.40
2023-01-11T23:25:42.301Z,8.40
2023-01-11T23:28:30.620Z,8.40
2023-01-11T23:31:18.577Z,8.50
2023-01-11T23:34:06.992Z,8.50
2023-01-11T23:36:53.494Z,8.50
2023-01-11T23:39:39.773Z,8.50
2023-01-11T23:42:26.639Z,8.60
2023-01-11T23:45:13.820Z,8.60
2023-01-11T23:47:59.215Z,8.60
2023-01-11T23:50:45.611Z,8.70
2023-01-11T23:53:32.032Z,8.70
2023-01-11T23:56:18.844Z,8.80
2023-01-11T23:59:07.539Z,8.80
